createdAt,value
2019-03-05T00:00:54.550Z,12.47
2019-03-05T00:01:54.540Z,12.38
2019-03-05T00:02:54.529Z,12.35
2019-03-05T00:03:54.527Z,12.26
2019-03-05T00:04:54.507Z,12.26
2019-03-05T00:05:54.497Z,12.21
2019-03-05T00:06:54.486Z,12.25
2019-03-05T00:07:54.477Z,12.22
2019-03-05T00:08:54.461Z,12.32
2019-03-05T00:09:54.447Z,12.25
2019-03-05T00:10:54.435Z,12.28
2019-03-05T00:11:54.429Z,12.21
2019-03-05T00:12:54.417Z,12.21
2019-03-05T00:13:54.406Z,12.26
2019-03-05T00:14:54.393Z,12.32
2019-03-05T00:15:54.387Z,12.33
2019-03-05T00:16:54.375Z,12.32
2019-03-05T00:17:54.363Z,12.29
2019-03-05T00:18:54.356Z,12.38
2019-03-05T00:19:54.341Z,12.44
2019-03-05T00:20:54.329Z,12.29
2019-03-05T00:21:54.317Z,12.23
2019-03-05T00:22:54.309Z,12.29
2019-03-05T00:23:54.295Z,12.22
2019-03-05T00:24:54.288Z,12.21
2019-03-05T00:25:54.271Z,12.18
2019-03-05T00:26:54.259Z,12.30
2019-03-05T00:27:54.253Z,12.32
2019-03-05T00:28:54.242Z,12.25
2019-03-05T00:29:54.232Z,12.28
2019-03-05T00:30:54.220Z,12.26
2019-03-05T00:31:54.210Z,12.23
2019-03-05T00:32:54.196Z,12.32
2019-03-05T00:33:54.186Z,12.26
2019-03-05T00:34:54.177Z,12.25
2019-03-05T00:35:54.167Z,12.44
2019-03-05T00:36:54.156Z,12.44
2019-03-05T00:37:54.144Z,12.40
2019-03-05T00:38:54.134Z,12.25
2019-03-05T00:39:54.122Z,12.32
2019-03-05T00:40:54.114Z,12.28
2019-03-05T00:41:54.095Z,12.29
2019-03-05T00:42:54.093Z,12.18
2019-03-05T00:43:54.075Z,12.28
2019-03-05T00:44:54.076Z,12.28
2019-03-05T00:45:54.054Z,12.32
2019-03-05T00:46:54.050Z,12.32
2019-03-05T00:47:54.036Z,12.28
2019-03-05T00:48:54.022Z,12.23
2019-03-05T00:49:54.008Z,12.25
2019-03-05T00:50:54.004Z,12.21
2019-03-05T00:51:53.987Z,12.28
2019-03-05T00:52:53.979Z,12.26
2019-03-05T00:53:53.970Z,12.28
2019-03-05T00:54:53.958Z,12.30
2019-03-05T00:55:53.960Z,12.29
2019-03-05T00:56:53.948Z,12.35
2019-03-05T00:57:53.921Z,12.25
2019-03-05T00:58:53.906Z,12.17
2019-03-05T00:59:53.902Z,12.21
2019-03-05T01:00:53.887Z,12.21
2019-03-05T01:01:53.876Z,12.21
2019-03-05T01:02:53.866Z,12.17
2019-03-05T01:03:53.862Z,12.17
2019-03-05T01:04:53.842Z,12.10
2019-03-05T01:05:53.838Z,12.14
2019-03-05T01:06:53.826Z,12.21
2019-03-05T01:07:53.815Z,12.17
2019-03-05T01:08:53.804Z,12.21
2019-03-05T01:09:53.787Z,12.15
2019-03-05T01:10:53.782Z,12.18
2019-03-05T01:11:53.764Z,12.22
2019-03-05T01:12:53.755Z,12.21
2019-03-05T01:13:53.749Z,12.29
2019-03-05T01:14:53.734Z,12.32
2019-03-05T01:15:53.735Z,12.41
2019-03-05T01:16:53.718Z,12.30
2019-03-05T01:17:53.702Z,12.32
2019-03-05T01:18:53.694Z,12.35
2019-03-05T01:19:53.685Z,12.26
2019-03-05T01:20:53.663Z,12.28
2019-03-05T01:21:53.668Z,12.22
2019-03-05T01:22:53.646Z,12.32
2019-03-05T01:23:53.633Z,12.43
2019-03-05T01:24:53.625Z,12.41
2019-03-05T01:25:53.615Z,12.40
2019-03-05T01:26:53.601Z,12.41
2019-03-05T01:27:53.641Z,12.43
2019-03-05T01:28:53.579Z,12.43
2019-03-05T01:29:53.566Z,12.44
2019-03-05T01:30:53.566Z,12.43
2019-03-05T01:31:53.546Z,12.43
2019-03-05T01:32:53.542Z,12.48
2019-03-05T01:33:53.529Z,12.38
2019-03-05T01:34:53.516Z,12.43
2019-03-05T01:35:53.506Z,12.41
2019-03-05T01:36:53.499Z,12.43
2019-03-05T01:37:53.481Z,12.43
2019-03-05T01:38:53.471Z,12.41
2019-03-05T01:39:53.461Z,12.44
2019-03-05T01:40:53.445Z,12.44
2019-03-05T01:41:53.444Z,12.43
2019-03-05T01:42:53.425Z,12.40
2019-03-05T01:43:53.416Z,12.32
2019-03-05T01:44:53.403Z,12.40
2019-03-05T01:45:53.395Z,12.43
2019-03-05T01:46:53.379Z,12.51
2019-03-05T01:47:53.375Z,12.43
2019-03-05T01:48:53.357Z,12.46
2019-03-05T01:49:53.350Z,12.41
2019-03-05T01:50:53.344Z,12.38
2019-03-05T01:51:53.336Z,12.44
2019-03-05T01:52:53.315Z,12.41
2019-03-05T01:53:53.308Z,12.40
2019-03-05T01:54:53.297Z,12.40
2019-03-05T01:55:53.285Z,12.35
2019-03-05T01:56:53.273Z,12.30
2019-03-05T01:57:53.269Z,12.30
2019-03-05T01:58:53.251Z,12.30
2019-03-05T01:59:53.241Z,12.25
2019-03-05T02:00:53.227Z,12.33
2019-03-05T02:01:53.214Z,12.23
2019-03-05T02:02:53.207Z,12.21
2019-03-05T02:03:53.194Z,12.15
2019-03-05T02:04:53.183Z,12.14
2019-03-05T02:05:53.180Z,12.10
2019-03-05T02:06:53.162Z,12.05
2019-03-05T02:07:53.159Z,12.03
2019-03-05T02:08:53.138Z,12.04
2019-03-05T02:09:53.130Z,12.00
2019-03-05T02:10:53.130Z,12.04
2019-03-05T02:11:53.110Z,11.97
2019-03-05T02:12:53.096Z,12.03
2019-03-05T02:13:53.081Z,12.10
2019-03-05T02:14:53.075Z,12.13
2019-03-05T02:15:53.056Z,12.10
2019-03-05T02:16:53.049Z,12.13
2019-03-05T02:17:53.038Z,12.13
2019-03-05T02:18:53.029Z,12.10
2019-03-05T02:19:53.015Z,12.13
2019-03-05T02:20:53.006Z,12.07
2019-03-05T02:21:52.995Z,12.08
2019-03-05T02:22:52.989Z,12.17
2019-03-05T02:23:52.979Z,12.11
2019-03-05T02:24:52.962Z,12.14
2019-03-05T02:25:52.951Z,12.15
2019-03-05T02:26:52.937Z,12.04
2019-03-05T02:27:52.926Z,12.04
2019-03-05T02:28:52.919Z,12.13
2019-03-05T02:29:52.911Z,12.04
2019-03-05T02:30:52.897Z,12.17
2019-03-05T02:31:52.889Z,12.05
2019-03-05T02:32:52.874Z,12.10
2019-03-05T02:33:52.865Z,12.13
2019-03-05T02:34:52.853Z,12.08
2019-03-05T02:35:52.846Z,12.04
2019-03-05T02:36:52.836Z,12.03
2019-03-05T02:37:52.818Z,12.03
2019-03-05T02:38:52.811Z,11.97
2019-03-05T02:39:52.803Z,11.93
2019-03-05T02:40:52.802Z,11.87
2019-03-05T02:41:52.774Z,11.91
2019-03-05T02:42:52.763Z,11.96
2019-03-05T02:43:52.752Z,11.88
2019-03-05T02:44:52.743Z,11.93
2019-03-05T02:45:52.728Z,11.88
2019-03-05T02:46:52.716Z,11.96
2019-03-05T02:47:52.706Z,11.91
2019-03-05T02:48:52.700Z,12.03
2019-03-05T02:49:52.685Z,12.15
2019-03-05T02:50:52.696Z,12.11
2019-03-05T02:51:52.668Z,12.04
2019-03-05T02:52:52.665Z,12.13
2019-03-05T02:53:52.641Z,12.11
2019-03-05T02:54:52.642Z,12.23
2019-03-05T02:55:52.618Z,12.22
2019-03-05T02:56:52.608Z,12.14
2019-03-05T02:57:52.597Z,12.10
2019-03-05T02:58:52.586Z,12.13
2019-03-05T02:59:52.574Z,12.17
2019-03-05T03:00:52.561Z,12.08
2019-03-05T03:01:52.555Z,12.05
2019-03-05T03:02:52.544Z,11.95
2019-03-05T03:03:52.533Z,11.89
2019-03-05T03:04:52.520Z,11.85
2019-03-05T03:05:52.505Z,11.96
2019-03-05T03:06:52.497Z,11.91
2019-03-05T03:07:52.483Z,11.87
2019-03-05T03:08:52.469Z,11.87
2019-03-05T03:09:52.461Z,11.97
2019-03-05T03:10:52.452Z,12.04
2019-03-05T03:11:52.439Z,12.11
2019-03-05T03:12:52.433Z,12.04
2019-03-05T03:13:52.425Z,12.11
2019-03-05T03:14:52.409Z,12.07
2019-03-05T03:15:52.397Z,12.08
2019-03-05T03:16:52.385Z,12.07
2019-03-05T03:17:52.398Z,12.04
2019-03-05T03:18:52.364Z,12.13
2019-03-05T03:19:52.352Z,12.04
2019-03-05T03:20:52.339Z,12.08
2019-03-05T03:21:52.372Z,12.04
2019-03-05T03:22:52.321Z,12.17
2019-03-05T03:23:52.310Z,12.15
2019-03-05T03:24:52.295Z,12.11
2019-03-05T03:25:52.282Z,12.13
2019-03-05T03:26:52.279Z,12.11
2019-03-05T03:27:52.385Z,12.15
2019-03-05T03:28:52.255Z,12.11
2019-03-05T03:29:52.256Z,12.14
2019-03-05T03:30:52.234Z,12.15
2019-03-05T03:31:52.230Z,12.07
2019-03-05T03:32:52.217Z,12.03
2019-03-05T03:33:52.199Z,11.96
2019-03-05T03:34:52.186Z,12.00
2019-03-05T03:35:52.211Z,11.99
2019-03-05T03:36:52.164Z,11.93
2019-03-05T03:37:52.160Z,11.96
2019-03-05T03:38:52.141Z,11.95
2019-03-05T03:39:52.134Z,11.93
2019-03-05T03:40:52.130Z,11.95
2019-03-05T03:41:52.108Z,11.82
2019-03-05T03:42:52.098Z,11.73
2019-03-05T03:43:52.087Z,11.66
2019-03-05T03:44:52.086Z,11.69
2019-03-05T03:45:52.068Z,11.66
2019-03-05T03:46:52.054Z,11.52
2019-03-05T03:47:52.047Z,11.56
2019-03-05T03:48:52.032Z,11.56
2019-03-05T03:49:52.016Z,11.48
2019-03-05T03:50:52.009Z,11.48
2019-03-05T03:51:51.997Z,11.49
2019-03-05T03:52:51.987Z,11.58
2019-03-05T03:53:51.980Z,11.54
2019-03-05T03:54:51.965Z,11.51
2019-03-05T03:55:51.957Z,11.38
2019-03-05T03:56:51.943Z,11.41
2019-03-05T03:57:51.934Z,11.38
2019-03-05T03:58:51.929Z,11.31
2019-03-05T03:59:51.910Z,11.33
2019-03-05T04:00:51.902Z,11.27
2019-03-05T04:01:51.895Z,11.18
2019-03-05T04:02:51.880Z,11.19
2019-03-05T04:03:51.865Z,11.22
2019-03-05T04:04:51.853Z,11.33
2019-03-05T04:05:51.842Z,11.23
2019-03-05T04:06:51.833Z,11.27
2019-03-05T04:07:51.822Z,11.20
2019-03-05T04:08:51.810Z,11.15
2019-03-05T04:09:51.796Z,11.12
2019-03-05T04:10:51.791Z,11.12
2019-03-05T04:11:51.775Z,11.03
2019-03-05T04:12:51.766Z,11.00
2019-03-05T04:13:51.752Z,11.04
2019-03-05T04:14:51.744Z,11.08
2019-03-05T04:15:51.729Z,11.11
2019-03-05T04:16:51.716Z,11.11
2019-03-05T04:17:51.724Z,11.01
2019-03-05T04:18:51.697Z,10.95
2019-03-05T04:19:51.690Z,11.01
2019-03-05T04:20:51.679Z,11.13
2019-03-05T04:21:51.658Z,11.05
2019-03-05T04:22:51.656Z,11.00
2019-03-05T04:23:51.738Z,10.91
2019-03-05T04:24:51.629Z,10.90
2019-03-05T04:25:51.617Z,10.80
2019-03-05T04:26:51.607Z,10.73
2019-03-05T04:27:51.594Z,10.75
2019-03-05T04:28:51.582Z,10.58
2019-03-05T04:29:51.575Z,10.68
2019-03-05T04:30:51.569Z,10.76
2019-03-05T04:31:51.556Z,10.80
2019-03-05T04:32:51.543Z,10.82
2019-03-05T04:33:51.524Z,10.80
2019-03-05T04:34:51.520Z,10.80
2019-03-05T04:35:51.506Z,10.85
2019-03-05T04:36:51.511Z,10.87
2019-03-05T04:37:51.482Z,10.87
2019-03-05T04:38:51.471Z,10.91
2019-03-05T04:39:51.467Z,10.91
2019-03-05T04:40:51.446Z,10.86
2019-03-05T04:41:51.439Z,11.01
2019-03-05T04:42:51.428Z,11.04
2019-03-05T04:43:51.416Z,11.08
2019-03-05T04:44:51.410Z,11.01
2019-03-05T04:45:51.394Z,10.95
2019-03-05T04:46:51.384Z,10.85
2019-03-05T04:47:51.374Z,10.91
2019-03-05T04:48:51.362Z,10.80
2019-03-05T04:49:51.352Z,10.68
2019-03-05T04:50:51.341Z,10.68
2019-03-05T04:51:51.324Z,10.80
2019-03-05T04:52:51.313Z,10.75
2019-03-05T04:53:51.302Z,10.68
2019-03-05T04:54:51.295Z,10.62
2019-03-05T04:55:51.285Z,10.67
2019-03-05T04:56:51.271Z,10.54
2019-03-05T04:57:51.261Z,10.52
2019-03-05T04:58:51.248Z,10.52
2019-03-05T04:59:51.238Z,10.75
2019-03-05T05:00:51.230Z,10.86
2019-03-05T05:01:51.221Z,10.95
2019-03-05T05:02:51.207Z,10.86
2019-03-05T05:03:51.196Z,10.76
2019-03-05T05:04:51.180Z,10.61
2019-03-05T05:05:51.167Z,10.65
2019-03-05T05:06:51.159Z,10.83
2019-03-05T05:07:51.151Z,10.82
2019-03-05T05:08:51.139Z,10.58
2019-03-05T05:09:51.133Z,10.58
2019-03-05T05:10:51.114Z,10.60
2019-03-05T05:11:51.102Z,10.57
2019-03-05T05:12:51.094Z,10.54
2019-03-05T05:13:51.080Z,10.42
2019-03-05T05:14:51.071Z,10.34
2019-03-05T05:15:51.060Z,10.34
2019-03-05T05:16:51.047Z,10.43
2019-03-05T05:17:51.038Z,10.57
2019-03-05T05:18:51.023Z,10.57
2019-03-05T05:19:51.012Z,10.48
2019-03-05T05:20:51.010Z,10.62
2019-03-05T05:21:50.991Z,10.61
2019-03-05T05:22:50.982Z,10.46
2019-03-05T05:23:50.971Z,10.46
2019-03-05T05:24:50.956Z,10.45
2019-03-05T05:25:50.954Z,10.41
2019-03-05T05:26:50.936Z,10.42
2019-03-05T05:27:50.932Z,10.48
2019-03-05T05:28:50.912Z,10.52
2019-03-05T05:29:50.902Z,10.45
2019-03-05T05:30:50.894Z,10.41
2019-03-05T05:31:50.883Z,10.41
2019-03-05T05:32:50.876Z,10.41
2019-03-05T05:33:50.864Z,10.52
2019-03-05T05:34:50.854Z,10.49
2019-03-05T05:35:50.839Z,10.57
2019-03-05T05:36:50.830Z,10.42
2019-03-05T05:37:50.815Z,10.49
2019-03-05T05:38:50.809Z,10.52
2019-03-05T05:39:50.791Z,10.48
2019-03-05T05:40:50.784Z,10.60
2019-03-05T05:41:50.773Z,10.57
2019-03-05T05:42:50.761Z,10.67
2019-03-05T05:43:50.749Z,10.91
2019-03-05T05:44:50.736Z,10.91
2019-03-05T05:45:50.725Z,10.90
2019-03-05T05:46:50.722Z,10.83
2019-03-05T05:47:50.707Z,10.83
2019-03-05T05:48:50.689Z,10.91
2019-03-05T05:49:50.683Z,10.98
2019-03-05T05:50:50.667Z,10.90
2019-03-05T05:51:50.662Z,10.86
2019-03-05T05:52:50.652Z,10.85
2019-03-05T05:53:50.637Z,10.91
2019-03-05T05:54:50.627Z,10.86
2019-03-05T05:55:50.620Z,10.91
2019-03-05T05:56:50.601Z,10.91
2019-03-05T05:57:50.590Z,10.93
2019-03-05T05:58:50.586Z,11.01
2019-03-05T05:59:50.576Z,11.13
2019-03-05T06:00:50.654Z,11.09
2019-03-05T06:01:50.554Z,11.01
2019-03-05T06:02:50.541Z,11.01
2019-03-05T06:03:50.529Z,11.00
2019-03-05T06:04:50.521Z,10.90
2019-03-05T06:05:50.510Z,10.90
2019-03-05T06:06:50.498Z,10.86
2019-03-05T06:07:50.486Z,10.80
2019-03-05T06:08:50.473Z,10.68
2019-03-05T06:09:50.468Z,10.65
2019-03-05T06:10:52.697Z,10.54
2019-03-05T06:11:50.438Z,10.65
2019-03-05T06:12:50.433Z,10.60
2019-03-05T06:13:50.419Z,10.85
2019-03-05T06:14:50.408Z,10.95
2019-03-05T06:15:50.408Z,10.95
2019-03-05T06:16:50.391Z,11.00
2019-03-05T06:17:50.372Z,10.90
2019-03-05T06:18:50.364Z,10.75
2019-03-05T06:19:50.351Z,10.91
2019-03-05T06:20:50.340Z,10.85
2019-03-05T06:21:50.329Z,10.87
2019-03-05T06:22:50.322Z,10.64
2019-03-05T06:23:50.309Z,10.57
2019-03-05T06:24:50.299Z,10.62
2019-03-05T06:25:50.285Z,10.64
2019-03-05T06:26:50.276Z,10.72
2019-03-05T06:27:50.264Z,10.91
2019-03-05T06:28:50.259Z,11.00
2019-03-05T06:29:50.251Z,11.11
2019-03-05T06:30:50.232Z,11.11
2019-03-05T06:31:50.227Z,11.13
2019-03-05T06:32:50.214Z,11.18
2019-03-05T06:33:50.195Z,11.16
2019-03-05T06:34:50.260Z,11.41
2019-03-05T06:35:50.181Z,11.54
2019-03-05T06:36:50.166Z,11.69
2019-03-05T06:37:50.155Z,11.73
2019-03-05T06:38:50.142Z,11.84
2019-03-05T06:39:50.131Z,11.91
2019-03-05T06:40:50.121Z,11.87
2019-03-05T06:41:50.106Z,11.95
2019-03-05T06:42:50.098Z,11.91
2019-03-05T06:43:50.086Z,11.87
2019-03-05T06:44:50.077Z,11.79
2019-03-05T06:45:50.063Z,11.76
2019-03-05T06:46:50.047Z,11.71
2019-03-05T06:47:50.039Z,11.76
2019-03-05T06:48:50.026Z,11.67
2019-03-05T06:49:50.023Z,11.55
2019-03-05T06:50:50.001Z,11.59
2019-03-05T06:51:49.990Z,11.59
2019-03-05T06:52:49.979Z,11.54
2019-03-05T06:53:49.971Z,11.46
2019-03-05T06:54:49.961Z,11.54
2019-03-05T06:55:49.953Z,11.46
2019-03-05T06:56:49.940Z,11.48
2019-03-05T06:57:49.931Z,11.52
2019-03-05T06:58:49.921Z,11.51
2019-03-05T06:59:49.907Z,11.56
2019-03-05T07:00:49.898Z,11.56
2019-03-05T07:01:49.885Z,11.54
2019-03-05T07:02:49.881Z,11.67
2019-03-05T07:03:49.861Z,11.61
2019-03-05T07:04:49.849Z,11.71
2019-03-05T07:05:49.842Z,11.79
2019-03-05T07:06:49.828Z,11.99
2019-03-05T07:07:49.820Z,12.08
2019-03-05T07:08:49.824Z,12.38
2019-03-05T07:09:49.804Z,12.62
2019-03-05T07:10:49.784Z,12.79
2019-03-05T07:11:49.776Z,12.76
2019-03-05T07:12:49.760Z,13.11
2019-03-05T07:13:49.754Z,13.39
2019-03-05T07:14:49.738Z,13.72
2019-03-05T07:15:49.733Z,13.72
2019-03-05T07:16:49.721Z,13.49
2019-03-05T07:17:49.709Z,13.38
2019-03-05T07:18:49.696Z,13.26
2019-03-05T07:19:57.667Z,13.24
2019-03-05T07:20:50.674Z,12.95
2019-03-05T07:21:49.659Z,12.93
2019-03-05T07:22:49.658Z,12.96
2019-03-05T07:23:49.637Z,12.88
2019-03-05T07:24:49.626Z,12.90
2019-03-05T07:25:49.615Z,12.95
2019-03-05T07:26:49.610Z,13.04
2019-03-05T07:27:49.595Z,13.23
2019-03-05T07:28:49.587Z,13.27
2019-03-05T07:29:49.577Z,13.36
2019-03-05T07:30:49.563Z,13.47
2019-03-05T07:31:49.550Z,13.72
2019-03-05T07:32:49.541Z,13.76
2019-03-05T07:33:49.525Z,13.83
2019-03-05T07:34:49.517Z,14.08
2019-03-05T07:35:49.503Z,14.38
2019-03-05T07:36:49.500Z,14.36
2019-03-05T07:37:49.483Z,14.45
2019-03-05T07:38:49.472Z,14.58
2019-03-05T07:39:49.469Z,14.66
2019-03-05T07:40:49.449Z,14.79
2019-03-05T07:41:49.437Z,14.86
2019-03-05T07:42:49.434Z,14.99
2019-03-05T07:43:49.419Z,15.07
2019-03-05T07:44:49.411Z,15.20
2019-03-05T07:45:49.399Z,15.65
2019-03-05T07:46:49.384Z,16.32
2019-03-05T07:47:49.375Z,16.43
2019-03-05T07:48:49.369Z,16.24
2019-03-05T07:49:49.355Z,16.17
2019-03-05T07:50:49.339Z,16.09
2019-03-05T07:51:49.329Z,15.91
2019-03-05T07:52:49.320Z,15.73
2019-03-05T07:53:49.307Z,15.70
2019-03-05T07:54:49.291Z,15.51
2019-03-05T07:55:49.284Z,15.33
2019-03-05T07:56:49.271Z,14.86
2019-03-05T07:57:49.266Z,14.67
2019-03-05T07:58:49.255Z,14.87
2019-03-05T07:59:49.238Z,14.93
2019-03-05T08:00:49.225Z,14.92
2019-03-05T08:01:49.218Z,15.03
2019-03-05T08:02:49.206Z,15.03
2019-03-05T08:03:49.196Z,15.03
2019-03-05T08:04:49.187Z,15.19
2019-03-05T08:05:49.191Z,15.41
2019-03-05T08:06:49.161Z,15.48
2019-03-05T08:07:49.155Z,15.59
2019-03-05T08:08:49.140Z,15.52
2019-03-05T08:09:49.127Z,15.65
2019-03-05T08:10:49.119Z,15.81
2019-03-05T08:11:49.111Z,16.92
2019-03-05T08:12:49.096Z,16.70
2019-03-05T08:13:49.085Z,16.77
2019-03-05T08:14:49.074Z,16.55
2019-03-05T08:15:49.094Z,16.61
2019-03-05T08:16:49.049Z,16.94
2019-03-05T08:17:49.043Z,17.09
2019-03-05T08:18:49.030Z,18.01
2019-03-05T08:19:49.015Z,18.91
2019-03-05T08:20:49.008Z,18.57
2019-03-05T08:21:48.995Z,19.09
2019-03-05T08:22:48.989Z,19.75
2019-03-05T08:23:48.971Z,19.22
2019-03-05T08:24:48.968Z,18.48
2019-03-05T08:25:48.950Z,17.97
2019-03-05T08:26:48.943Z,17.56
2019-03-05T08:27:50.707Z,17.04
2019-03-05T08:28:48.917Z,16.70
2019-03-05T08:29:48.909Z,16.52
2019-03-05T08:30:48.897Z,16.83
2019-03-05T08:31:48.908Z,17.19
2019-03-05T08:32:48.873Z,16.73
2019-03-05T08:33:48.866Z,16.29
2019-03-05T08:34:48.852Z,16.13
2019-03-05T08:35:48.839Z,16.25
2019-03-05T08:36:48.825Z,16.29
2019-03-05T08:37:48.821Z,16.47
2019-03-05T08:38:48.805Z,16.52
2019-03-05T08:39:48.791Z,16.72
2019-03-05T08:40:48.785Z,16.76
2019-03-05T08:41:48.768Z,16.69
2019-03-05T08:42:48.763Z,16.46
2019-03-05T08:43:48.752Z,16.28
2019-03-05T08:44:50.614Z,16.03
2019-03-05T08:45:48.731Z,16.13
2019-03-05T08:46:48.714Z,15.78
2019-03-05T08:47:48.705Z,15.66
2019-03-05T08:48:48.693Z,15.60
2019-03-05T08:49:48.685Z,15.52
2019-03-05T08:50:48.669Z,15.36
2019-03-05T08:51:48.662Z,15.20
2019-03-05T08:52:48.649Z,14.97
2019-03-05T08:53:49.883Z,14.97
2019-03-05T08:54:48.627Z,14.96
2019-03-05T08:55:48.615Z,15.19
2019-03-05T08:56:48.610Z,15.15
2019-03-05T08:57:48.593Z,15.27
2019-03-05T08:58:48.600Z,15.33
2019-03-05T08:59:48.578Z,15.45
2019-03-05T09:00:48.571Z,15.70
2019-03-05T09:01:48.548Z,15.87
2019-03-05T09:02:49.428Z,15.80
2019-03-05T09:03:48.528Z,15.99
2019-03-05T09:04:48.515Z,16.51
2019-03-05T09:05:48.506Z,16.62
2019-03-05T09:06:48.494Z,16.40
2019-03-05T09:07:48.487Z,16.72
2019-03-05T09:08:48.474Z,16.92
2019-03-05T09:09:48.458Z,17.27
2019-03-05T09:10:48.454Z,17.35
2019-03-05T09:11:48.446Z,17.09
2019-03-05T09:12:48.424Z,18.15
2019-03-05T09:13:48.414Z,19.35
2019-03-05T09:14:48.409Z,19.78
2019-03-05T09:15:48.397Z,20.33
2019-03-05T09:16:48.391Z,20.90
2019-03-05T09:17:48.380Z,20.75
2019-03-05T09:18:48.364Z,21.13
2019-03-05T09:19:48.349Z,21.25
2019-03-05T09:20:48.340Z,22.01
2019-03-05T09:21:49.339Z,21.34
2019-03-05T09:22:48.319Z,19.89
2019-03-05T09:23:48.310Z,19.32
2019-03-05T09:24:48.295Z,18.09
2019-03-05T09:25:48.287Z,17.57
2019-03-05T09:26:51.393Z,17.01
2019-03-05T09:27:48.269Z,16.52
2019-03-05T09:28:48.260Z,15.90
2019-03-05T09:29:48.244Z,15.76
2019-03-05T09:30:48.255Z,15.72
2019-03-05T09:31:48.226Z,15.70
2019-03-05T09:32:48.211Z,15.43
2019-03-05T09:33:48.199Z,15.41
2019-03-05T09:34:48.184Z,15.32
2019-03-05T09:35:48.172Z,15.27
2019-03-05T09:36:51.313Z,15.30
2019-03-05T09:37:48.161Z,15.47
2019-03-05T09:38:48.145Z,15.56
2019-03-05T09:39:48.135Z,15.65
2019-03-05T09:40:48.116Z,15.69
2019-03-05T09:41:48.112Z,15.93
2019-03-05T09:42:48.105Z,16.39
2019-03-05T09:43:48.089Z,17.54
2019-03-05T09:44:48.079Z,17.71
2019-03-05T09:45:48.070Z,17.47
2019-03-05T09:46:48.053Z,17.07
2019-03-05T09:47:48.038Z,16.72
2019-03-05T09:48:48.026Z,16.52
2019-03-05T09:49:48.020Z,16.55
2019-03-05T09:50:48.010Z,16.54
2019-03-05T09:51:47.997Z,16.61
2019-03-05T09:52:54.808Z,16.80
2019-03-05T09:53:48.999Z,17.34
2019-03-05T09:54:47.956Z,17.35
2019-03-05T09:55:47.951Z,17.13
2019-03-05T09:56:47.946Z,17.17
2019-03-05T09:57:47.956Z,17.02
2019-03-05T09:58:47.921Z,16.79
2019-03-05T09:59:47.925Z,16.95
2019-03-05T10:00:47.897Z,16.92
2019-03-05T10:01:47.887Z,16.91
2019-03-05T10:02:47.874Z,17.20
2019-03-05T10:03:47.866Z,17.02
2019-03-05T10:04:47.855Z,16.98
2019-03-05T10:05:47.845Z,16.84
2019-03-05T10:06:47.834Z,16.91
2019-03-05T10:07:47.820Z,16.73
2019-03-05T10:08:47.803Z,16.69
2019-03-05T10:09:47.798Z,16.55
2019-03-05T10:10:47.786Z,16.43
2019-03-05T10:11:47.777Z,17.19
2019-03-05T10:12:47.761Z,17.91
2019-03-05T10:13:47.754Z,17.38
2019-03-05T10:14:47.746Z,17.19
2019-03-05T10:15:47.734Z,16.90
2019-03-05T10:16:47.721Z,16.70
2019-03-05T10:17:49.890Z,16.44
2019-03-05T10:18:47.702Z,16.44
2019-03-05T10:19:47.679Z,16.58
2019-03-05T10:20:47.673Z,18.58
2019-03-05T10:21:47.659Z,20.25
2019-03-05T10:22:47.658Z,21.50
2019-03-05T10:23:47.639Z,22.59
2019-03-05T10:24:47.629Z,22.49
2019-03-05T10:25:47.648Z,20.80
2019-03-05T10:26:47.608Z,19.97
2019-03-05T10:27:47.596Z,19.45
2019-03-05T10:28:47.587Z,19.04
2019-03-05T10:29:47.573Z,18.57
2019-03-05T10:30:47.564Z,18.38
2019-03-05T10:31:47.565Z,18.17
2019-03-05T10:32:47.543Z,18.13
2019-03-05T10:33:47.532Z,18.06
2019-03-05T10:34:47.515Z,17.93
2019-03-05T10:35:47.508Z,17.86
2019-03-05T10:36:47.504Z,17.86
2019-03-05T10:37:47.486Z,17.81
2019-03-05T10:38:56.928Z,17.91
2019-03-05T10:39:48.467Z,17.88
2019-03-05T10:40:47.456Z,17.94
2019-03-05T10:41:47.448Z,17.75
2019-03-05T10:42:47.437Z,17.71
2019-03-05T10:43:47.419Z,17.79
2019-03-05T10:44:47.412Z,17.38
2019-03-05T10:45:47.405Z,17.30
2019-03-05T10:46:47.391Z,17.37
2019-03-05T10:47:47.375Z,16.97
2019-03-05T10:48:47.362Z,16.92
2019-03-05T10:49:47.351Z,16.83
2019-03-05T10:50:47.347Z,16.97
2019-03-05T10:51:47.331Z,17.04
2019-03-05T10:52:47.319Z,17.24
2019-03-05T10:53:47.327Z,17.02
2019-03-05T10:54:47.303Z,16.94
2019-03-05T10:55:47.295Z,17.19
2019-03-05T10:56:47.283Z,17.30
2019-03-05T10:57:47.318Z,17.52
2019-03-05T10:58:47.255Z,17.41
2019-03-05T10:59:47.254Z,17.38
2019-03-05T11:00:47.251Z,17.37
2019-03-05T11:01:47.222Z,17.39
2019-03-05T11:02:47.207Z,17.06
2019-03-05T11:03:47.205Z,17.17
2019-03-05T11:04:47.194Z,17.39
2019-03-05T11:05:47.177Z,17.78
2019-03-05T11:06:47.166Z,18.13
2019-03-05T11:07:47.155Z,19.22
2019-03-05T11:08:47.158Z,19.71
2019-03-05T11:09:47.135Z,20.12
2019-03-05T11:10:47.127Z,20.46
2019-03-05T11:11:47.112Z,19.99
2019-03-05T11:12:47.100Z,19.96
2019-03-05T11:13:47.098Z,19.82
2019-03-05T11:14:47.077Z,19.38
2019-03-05T11:15:47.091Z,19.17
2019-03-05T11:16:47.063Z,19.07
2019-03-05T11:17:47.044Z,18.81
2019-03-05T11:18:47.035Z,18.57
2019-03-05T11:19:47.026Z,18.67
2019-03-05T11:20:47.015Z,18.49
2019-03-05T11:21:47.004Z,18.31
2019-03-05T11:22:46.995Z,18.28
2019-03-05T11:23:46.983Z,18.13
2019-03-05T11:24:46.966Z,18.05
2019-03-05T11:25:46.960Z,17.96
2019-03-05T11:26:46.952Z,18.09
2019-03-05T11:27:46.937Z,18.15
2019-03-05T11:28:46.925Z,18.15
2019-03-05T11:29:46.917Z,17.79
2019-03-05T11:30:46.905Z,17.47
2019-03-05T11:31:46.892Z,17.35
2019-03-05T11:32:46.885Z,17.37
2019-03-05T11:33:46.871Z,17.35
2019-03-05T11:34:46.869Z,17.37
2019-03-05T11:35:46.851Z,17.02
2019-03-05T11:36:46.835Z,17.12
2019-03-05T11:37:46.826Z,17.19
2019-03-05T11:38:46.816Z,17.34
2019-03-05T11:39:46.809Z,17.34
2019-03-05T11:40:46.795Z,17.31
2019-03-05T11:41:46.782Z,17.24
2019-03-05T11:42:46.801Z,17.34
2019-03-05T11:43:46.758Z,17.87
2019-03-05T11:44:58.817Z,18.05
2019-03-05T11:45:47.744Z,18.18
2019-03-05T11:46:46.729Z,18.28
2019-03-05T11:47:46.720Z,18.09
2019-03-05T11:48:46.712Z,18.36
2019-03-05T11:49:46.702Z,19.56
2019-03-05T11:50:46.691Z,19.74
2019-03-05T11:51:46.673Z,19.30
2019-03-05T11:52:46.662Z,18.58
2019-03-05T11:53:46.650Z,18.34
2019-03-05T11:54:46.644Z,17.90
2019-03-05T11:55:46.632Z,17.57
2019-03-05T11:56:46.624Z,17.52
2019-03-05T11:57:46.609Z,17.09
2019-03-05T11:58:46.597Z,17.16
2019-03-05T11:59:46.587Z,17.17
2019-03-05T12:00:46.578Z,17.32
2019-03-05T12:01:46.562Z,16.84
2019-03-05T12:02:46.555Z,16.83
2019-03-05T12:03:46.544Z,16.84
2019-03-05T12:04:46.537Z,16.99
2019-03-05T12:05:46.525Z,17.07
2019-03-05T12:06:46.517Z,17.04
2019-03-05T12:07:46.497Z,17.13
2019-03-05T12:08:46.493Z,17.24
2019-03-05T12:09:46.484Z,17.34
2019-03-05T12:10:46.477Z,17.19
2019-03-05T12:11:46.456Z,17.13
2019-03-05T12:12:46.451Z,17.09
2019-03-05T12:13:46.441Z,17.20
2019-03-05T12:14:46.426Z,17.06
2019-03-05T12:15:46.425Z,17.12
2019-03-05T12:16:46.402Z,16.98
2019-03-05T12:17:46.395Z,17.16
2019-03-05T12:18:46.380Z,17.34
2019-03-05T12:19:46.429Z,17.84
2019-03-05T12:20:46.359Z,18.20
2019-03-05T12:21:46.353Z,18.70
2019-03-05T12:22:46.339Z,19.97
2019-03-05T12:23:47.331Z,20.44
2019-03-05T12:24:46.313Z,21.18
2019-03-05T12:25:46.309Z,22.04
2019-03-05T12:26:46.311Z,22.30
2019-03-05T12:27:46.282Z,22.73
2019-03-05T12:28:46.267Z,23.41
2019-03-05T12:29:46.261Z,23.92
2019-03-05T12:30:46.253Z,22.77
2019-03-05T12:31:46.236Z,22.74
2019-03-05T12:32:46.225Z,23.17
2019-03-05T12:33:46.213Z,22.66
2019-03-05T12:34:46.203Z,22.59
2019-03-05T12:35:46.195Z,22.96
2019-03-05T12:36:46.183Z,23.96
2019-03-05T12:37:46.180Z,23.81
2019-03-05T12:38:46.491Z,23.36
2019-03-05T12:39:46.146Z,23.15
2019-03-05T12:40:46.150Z,23.44
2019-03-05T12:41:46.129Z,22.51
2019-03-05T12:42:46.116Z,20.93
2019-03-05T12:43:46.119Z,19.96
2019-03-05T12:44:46.094Z,19.86
2019-03-05T12:45:46.091Z,20.12
2019-03-05T12:46:46.080Z,19.54
2019-03-05T12:47:46.070Z,18.86
2019-03-05T12:48:46.052Z,18.23
2019-03-05T12:49:46.039Z,18.26
2019-03-05T12:50:46.035Z,19.01
2019-03-05T12:51:46.017Z,19.41
2019-03-05T12:52:46.045Z,21.11